createdAt,value
2023-05-24T00:00:13.158Z,16.17
2023-05-24T00:02:43.873Z,17.08
2023-05-24T00:05:10.956Z,17.15
2023-05-24T00:07:38.428Z,16.48
2023-05-24T00:10:06.145Z,16.25
2023-05-24T00:12:33.202Z,17.02
2023-05-24T00:14:59.752Z,17.63
2023-05-24T00:17:26.514Z,17.05
2023-05-24T00:19:53.325Z,16.70
2023-05-24T00:22:21.043Z,17.02
2023-05-24T00:24:48.253Z,15.15
2023-05-24T00:27:15.529Z,17.80
2023-05-24T00:29:42.070Z,17.40
2023-05-24T00:32:08.787Z,16.92
2023-05-24T00:34:35.720Z,15.23
2023-05-24T00:37:02.214Z,17.33
2023-05-24T00:39:28.807Z,16.15
2023-05-24T00:41:55.261Z,16.42
2023-05-24T00:44:21.726Z,17.20
2023-05-24T00:46:48.506Z,16.30
2023-05-24T00:49:15.007Z,16.60
2023-05-24T00:51:41.559Z,14.70
2023-05-24T00:54:08.209Z,15.82
2023-05-24T00:56:34.913Z,16.80
2023-05-24T00:59:01.951Z,16.95
2023-05-24T01:01:31.021Z,16.08
2023-05-24T01:03:59.466Z,16.90
2023-05-24T01:06:28.043Z,16.23
2023-05-24T01:09:07.515Z,16.77
2023-05-24T01:11:45.982Z,17.40
2023-05-24T01:14:34.016Z,16.92
2023-05-24T01:17:15.080Z,17.95
2023-05-24T01:20:06.904Z,17.17
2023-05-24T01:22:39.780Z,16.52
2023-05-24T01:25:34.313Z,15.88
2023-05-24T01:28:01.629Z,16.20
2023-05-24T01:30:28.699Z,16.02
2023-05-24T01:32:55.411Z,16.35
2023-05-24T01:35:21.960Z,18.27
2023-05-24T01:37:48.467Z,17.05
2023-05-24T01:40:15.876Z,17.90
2023-05-24T01:42:56.597Z,15.85
2023-05-24T01:45:32.331Z,19.15
2023-05-24T01:48:27.720Z,17.75
2023-05-24T01:50:56.971Z,18.40
2023-05-24T01:53:26.434Z,16.10
2023-05-24T01:55:56.524Z,17.30
2023-05-24T01:58:25.485Z,16.50
2023-05-24T02:00:53.194Z,16.48
2023-05-24T02:03:20.243Z,16.83
2023-05-24T02:05:47.102Z,17.48
2023-05-24T02:08:13.963Z,17.15
2023-05-24T02:10:40.929Z,15.65
2023-05-24T02:13:08.598Z,17.33
2023-05-24T02:15:35.624Z,16.27
2023-05-24T02:18:02.438Z,17.98
2023-05-24T02:20:31.986Z,17.30
2023-05-24T02:22:59.066Z,15.52
2023-05-24T02:25:26.004Z,16.85
2023-05-24T02:27:52.543Z,17.63
2023-05-24T02:30:19.231Z,17.00
2023-05-24T02:32:46.648Z,17.95
2023-05-24T02:35:13.319Z,15.52
2023-05-24T02:37:40.591Z,16.75
2023-05-24T02:40:07.911Z,15.60
2023-05-24T02:42:34.664Z,16.48
2023-05-24T02:45:01.219Z,16.40
2023-05-24T02:47:27.861Z,17.00
2023-05-24T02:49:54.953Z,15.57
2023-05-24T02:52:23.038Z,16.20
2023-05-24T02:54:49.960Z,15.95
2023-05-24T02:57:16.631Z,17.65
2023-05-24T02:59:43.568Z,18.05
2023-05-24T03:02:10.128Z,17.02
2023-05-24T03:04:36.561Z,16.00
2023-05-24T03:07:03.306Z,15.65
2023-05-24T03:09:30.021Z,17.45
2023-05-24T03:11:56.503Z,15.70
2023-05-24T03:14:24.846Z,16.85
2023-05-24T03:16:51.596Z,18.02
2023-05-24T03:19:18.223Z,17.48
2023-05-24T03:21:44.771Z,16.65
2023-05-24T03:24:13.398Z,17.13
2023-05-24T03:26:40.843Z,17.00
2023-05-24T03:29:07.704Z,16.70
2023-05-24T03:31:34.335Z,17.38
2023-05-24T03:34:01.411Z,16.63
2023-05-24T03:36:29.113Z,16.60
2023-05-24T03:38:58.314Z,17.17
2023-05-24T03:41:25.217Z,17.30
2023-05-24T03:43:52.466Z,15.27
2023-05-24T03:46:19.011Z,17.25
2023-05-24T03:48:45.580Z,16.10
2023-05-24T03:51:12.056Z,17.27
2023-05-24T03:53:38.544Z,16.50
2023-05-24T03:56:05.510Z,16.30
2023-05-24T03:58:32.060Z,16.38
2023-05-24T04:00:58.695Z,14.85
2023-05-24T04:03:26.063Z,15.38
2023-05-24T04:05:54.020Z,15.73
2023-05-24T04:08:20.716Z,15.93
2023-05-24T04:10:47.200Z,17.92
2023-05-24T04:13:13.879Z,17.77
2023-05-24T04:15:40.732Z,18.90
2023-05-24T04:18:07.343Z,19.70
2023-05-24T04:20:34.001Z,19.90
2023-05-24T04:23:00.597Z,20.92
2023-05-24T04:25:27.626Z,20.88
2023-05-24T04:27:54.308Z,20.92
2023-05-24T04:30:21.474Z,22.98
2023-05-24T04:32:48.653Z,22.98
2023-05-24T04:35:16.724Z,23.70
2023-05-24T04:37:44.557Z,23.75
2023-05-24T04:40:11.725Z,26.70
2023-05-24T04:42:38.421Z,29.10
2023-05-24T04:45:05.570Z,31.92
2023-05-24T04:47:32.508Z,33.75
2023-05-24T04:49:59.064Z,35.38
2023-05-24T04:52:25.763Z,35.50
2023-05-24T04:54:52.876Z,39.78
2023-05-24T04:57:19.396Z,38.05
2023-05-24T04:59:45.940Z,39.22
2023-05-24T05:02:12.773Z,38.92
2023-05-24T05:04:39.408Z,39.67
2023-05-24T05:07:07.334Z,38.75
2023-05-24T05:09:33.874Z,39.20
2023-05-24T05:12:00.389Z,39.10
2023-05-24T05:14:27.001Z,38.22
2023-05-24T05:16:53.507Z,39.05
2023-05-24T05:19:20.196Z,38.75
2023-05-24T05:21:46.645Z,39.17
2023-05-24T05:24:20.254Z,39.50
2023-05-24T05:26:46.736Z,39.17
2023-05-24T05:29:13.279Z,39.92
2023-05-24T05:31:39.779Z,40.30
2023-05-24T05:34:09.807Z,39.22
2023-05-24T05:36:41.138Z,39.60
2023-05-24T05:39:11.473Z,40.60
2023-05-24T05:41:46.380Z,40.88
2023-05-24T05:44:13.842Z,39.17
2023-05-24T05:46:41.490Z,39.88
2023-05-24T05:49:08.205Z,38.95
2023-05-24T05:51:34.712Z,38.63
2023-05-24T05:54:01.355Z,38.83
2023-05-24T05:56:27.883Z,38.20
2023-05-24T05:58:56.339Z,39.80
2023-05-24T06:01:24.160Z,39.80
2023-05-24T06:03:51.561Z,38.90
2023-05-24T06:06:18.336Z,38.85
2023-05-24T06:08:44.840Z,39.88
2023-05-24T06:11:11.771Z,38.63
2023-05-24T06:13:38.305Z,39.00
2023-05-24T06:16:04.947Z,37.88
2023-05-24T06:18:32.617Z,37.75
2023-05-24T06:20:59.148Z,38.17
2023-05-24T06:23:25.679Z,35.95
2023-05-24T06:25:52.281Z,38.50
2023-05-24T06:28:18.905Z,37.13
2023-05-24T06:30:45.752Z,37.00
2023-05-24T06:33:12.452Z,36.05
2023-05-24T06:35:38.995Z,34.90
2023-05-24T06:38:05.763Z,34.72
2023-05-24T06:40:32.369Z,34.95
2023-05-24T06:42:58.916Z,33.53
2023-05-24T06:45:25.488Z,32.55
2023-05-24T06:47:52.228Z,27.38
2023-05-24T06:50:18.945Z,26.05
2023-05-24T06:52:45.608Z,26.58
2023-05-24T06:55:12.061Z,25.08
2023-05-24T06:57:38.549Z,25.27
2023-05-24T07:00:09.930Z,24.77
2023-05-24T07:02:36.473Z,26.02
2023-05-24T07:05:03.039Z,20.75
2023-05-24T07:07:29.611Z,22.80
2023-05-24T07:09:56.494Z,24.80
2023-05-24T07:12:23.595Z,20.95
2023-05-24T07:14:50.069Z,22.48
2023-05-24T07:17:16.740Z,21.00
2023-05-24T07:19:43.355Z,21.23
2023-05-24T07:22:09.874Z,21.35
2023-05-24T07:24:36.668Z,19.77
2023-05-24T07:27:03.342Z,20.52
2023-05-24T07:29:29.803Z,20.88
2023-05-24T07:31:56.847Z,20.50
2023-05-24T07:34:27.645Z,20.00
2023-05-24T07:36:54.180Z,19.98
2023-05-24T07:39:20.752Z,20.13
2023-05-24T07:41:48.287Z,21.35
2023-05-24T07:44:15.102Z,19.73
2023-05-24T07:46:41.630Z,19.27
2023-05-24T07:49:08.091Z,19.02
2023-05-24T07:51:34.559Z,18.85
2023-05-24T07:54:01.071Z,20.38
2023-05-24T07:56:27.575Z,18.90
2023-05-24T07:58:59.293Z,19.13
2023-05-24T08:01:25.954Z,18.92
2023-05-24T08:03:52.936Z,18.45
2023-05-24T08:06:19.533Z,19.08
2023-05-24T08:08:46.362Z,19.40
2023-05-24T08:11:14.145Z,18.13
2023-05-24T08:13:40.604Z,19.25
2023-05-24T08:16:07.114Z,18.88
2023-05-24T08:18:33.729Z,21.08
2023-05-24T08:21:00.184Z,19.80
2023-05-24T08:23:27.064Z,17.65
2023-05-24T08:25:54.281Z,20.85
2023-05-24T08:28:21.146Z,18.30
2023-05-24T08:30:48.095Z,18.42
2023-05-24T08:33:15.007Z,18.85
2023-05-24T08:35:42.299Z,18.65
2023-05-24T08:38:09.498Z,19.33
2023-05-24T08:40:36.172Z,19.50
2023-05-24T08:43:02.817Z,18.75
2023-05-24T08:45:31.917Z,19.85
2023-05-24T08:47:59.561Z,20.00
2023-05-24T08:50:28.604Z,20.45
2023-05-24T08:52:57.551Z,20.27
2023-05-24T08:55:25.099Z,18.25
2023-05-24T08:57:52.635Z,18.67
2023-05-24T09:00:19.704Z,19.15
2023-05-24T09:02:46.517Z,19.25
2023-05-24T09:05:16.781Z,18.83
2023-05-24T09:07:45.575Z,19.98
2023-05-24T09:10:12.701Z,18.70
2023-05-24T09:12:42.279Z,18.90
2023-05-24T09:15:09.633Z,18.60
2023-05-24T09:17:37.359Z,18.38
2023-05-24T09:20:07.484Z,17.40
2023-05-24T09:22:36.857Z,17.98
2023-05-24T09:25:06.427Z,17.05
2023-05-24T09:27:35.033Z,17.90
2023-05-24T09:30:04.981Z,17.40
2023-05-24T09:32:31.802Z,16.95
2023-05-24T09:34:59.683Z,17.63
2023-05-24T09:37:32.182Z,16.98
2023-05-24T09:39:59.579Z,16.33
2023-05-24T09:42:28.791Z,16.35
2023-05-24T09:45:10.561Z,16.02
2023-05-24T09:47:41.611Z,15.57
2023-05-24T09:50:17.732Z,15.25
2023-05-24T09:52:45.373Z,16.75
2023-05-24T09:55:17.010Z,15.23
2023-05-24T09:57:52.407Z,16.33
2023-05-24T10:00:27.904Z,16.05
2023-05-24T10:03:07.101Z,15.45
2023-05-24T10:05:34.931Z,16.67
2023-05-24T10:08:02.153Z,14.90
2023-05-24T10:10:30.299Z,14.13
2023-05-24T10:12:57.929Z,13.98
2023-05-24T10:15:25.493Z,14.32
2023-05-24T10:17:52.771Z,13.80
2023-05-24T10:20:19.486Z,13.68
2023-05-24T10:22:47.879Z,13.32
2023-05-24T10:25:18.555Z,13.98
2023-05-24T10:27:46.719Z,14.38
2023-05-24T10:30:16.109Z,13.68
2023-05-24T10:32:45.419Z,13.68
2023-05-24T10:35:14.834Z,14.00
2023-05-24T10:37:42.713Z,13.63
2023-05-24T10:40:20.906Z,16.77
2023-05-24T10:42:48.175Z,14.32
2023-05-24T10:45:53.451Z,14.90
2023-05-24T10:48:29.281Z,13.15
2023-05-24T10:50:56.300Z,15.82
2023-05-24T10:53:25.945Z,17.27
2023-05-24T10:55:59.663Z,15.63
2023-05-24T10:58:48.691Z,17.08
2023-05-24T11:01:27.091Z,17.02
2023-05-24T11:03:54.256Z,17.17
2023-05-24T11:06:48.037Z,17.70
2023-05-24T11:09:15.959Z,14.85
2023-05-24T11:11:46.317Z,15.55
2023-05-24T11:14:13.891Z,16.10
2023-05-24T11:16:41.189Z,15.05
2023-05-24T11:19:23.094Z,13.88
2023-05-24T11:21:51.681Z,14.38
2023-05-24T11:24:19.273Z,14.40
2023-05-24T11:26:46.759Z,14.05
2023-05-24T11:29:18.058Z,14.55
2023-05-24T11:31:58.147Z,13.60
2023-05-24T11:34:27.085Z,13.82
2023-05-24T11:36:55.353Z,14.02
2023-05-24T11:39:23.509Z,14.05
2023-05-24T11:41:50.304Z,14.15
2023-05-24T11:44:19.486Z,12.90
2023-05-24T11:46:46.263Z,14.27
2023-05-24T11:49:16.776Z,13.75
2023-05-24T11:51:43.721Z,13.57
2023-05-24T11:54:10.281Z,14.15
2023-05-24T11:56:36.902Z,14.38
2023-05-24T11:59:15.862Z,13.35
2023-05-24T12:01:42.571Z,13.93
2023-05-24T12:04:10.250Z,14.63
2023-05-24T12:06:39.493Z,14.80
2023-05-24T12:09:08.624Z,13.23
2023-05-24T12:11:39.736Z,14.57
2023-05-24T12:14:07.328Z,15.40
2023-05-24T12:16:35.862Z,15.55
2023-05-24T12:19:09.360Z,15.00
2023-05-24T12:21:43.946Z,14.80
2023-05-24T12:24:19.387Z,15.55
2023-05-24T12:26:48.831Z,13.35
2023-05-24T12:29:16.462Z,14.88
2023-05-24T12:31:44.581Z,14.02
2023-05-24T12:34:18.889Z,14.82
2023-05-24T12:36:46.337Z,14.18
2023-05-24T12:39:19.571Z,14.38
2023-05-24T12:41:50.909Z,13.88
2023-05-24T12:44:17.404Z,14.93
2023-05-24T12:46:44.179Z,14.15
2023-05-24T12:49:10.757Z,16.83
2023-05-24T12:51:37.404Z,17.17
2023-05-24T12:54:05.271Z,18.73
2023-05-24T12:56:31.741Z,17.17
2023-05-24T12:58:58.450Z,16.90
2023-05-24T13:01:25.614Z,15.85
2023-05-24T13:03:52.204Z,15.40
2023-05-24T13:06:18.828Z,15.75
2023-05-24T13:08:45.367Z,15.63
2023-05-24T13:11:12.570Z,15.57
2023-05-24T13:13:39.102Z,15.52
2023-05-24T13:16:07.462Z,15.73
2023-05-24T13:18:34.056Z,15.45
2023-05-24T13:21:00.755Z,14.88
2023-05-24T13:23:27.882Z,15.82
2023-05-24T13:25:54.559Z,14.98
2023-05-24T13:28:22.172Z,15.82
2023-05-24T13:30:48.790Z,17.70
2023-05-24T13:33:15.807Z,17.02
2023-05-24T13:35:42.633Z,16.38
2023-05-24T13:38:09.657Z,16.65
2023-05-24T13:40:37.411Z,17.63
2023-05-24T13:43:04.805Z,17.92
2023-05-24T13:45:33.209Z,18.60
2023-05-24T13:48:04.076Z,17.90
2023-05-24T13:50:34.920Z,16.90
2023-05-24T13:53:04.769Z,18.33
2023-05-24T13:55:34.145Z,18.58
2023-05-24T13:58:05.100Z,18.23
2023-05-24T14:00:33.402Z,21.50
2023-05-24T14:02:59.965Z,18.27
2023-05-24T14:05:27.828Z,19.83
2023-05-24T14:07:56.663Z,21.17
2023-05-24T14:10:23.651Z,18.60
2023-05-24T14:12:59.993Z,17.48
2023-05-24T14:15:37.178Z,18.25
2023-05-24T14:18:08.085Z,17.77
2023-05-24T14:20:37.819Z,19.70
2023-05-24T14:23:04.928Z,18.17
2023-05-24T14:25:32.064Z,17.67
2023-05-24T14:27:59.729Z,18.67
2023-05-24T14:30:26.667Z,17.55
2023-05-24T14:32:53.212Z,18.60
2023-05-24T14:35:20.147Z,21.05
2023-05-24T14:37:46.770Z,19.67
2023-05-24T14:40:13.908Z,18.85
2023-05-24T14:42:41.303Z,17.80
2023-05-24T14:45:08.700Z,17.27
2023-05-24T14:47:35.645Z,16.63
2023-05-24T14:50:02.462Z,17.23
2023-05-24T14:52:29.000Z,16.73
2023-05-24T14:54:55.532Z,16.80
2023-05-24T14:57:22.485Z,17.55
2023-05-24T14:59:49.009Z,16.95
2023-05-24T15:02:15.658Z,16.40
2023-05-24T15:04:45.061Z,18.60
2023-05-24T15:07:11.569Z,20.15
2023-05-24T15:09:38.232Z,19.75
2023-05-24T15:12:05.929Z,19.50
2023-05-24T15:14:32.433Z,17.73
2023-05-24T15:16:59.014Z,18.08
2023-05-24T15:19:25.944Z,17.90
2023-05-24T15:21:52.394Z,16.17
2023-05-24T15:24:19.001Z,15.98
2023-05-24T15:26:45.518Z,17.05
2023-05-24T15:29:12.008Z,17.40
2023-05-24T15:31:38.567Z,17.23
2023-05-24T15:34:05.834Z,17.30
2023-05-24T15:36:32.574Z,18.88
2023-05-24T15:39:01.598Z,19.20
2023-05-24T15:41:28.333Z,18.80
2023-05-24T15:43:54.930Z,17.95
2023-05-24T15:46:22.016Z,20.50
2023-05-24T15:48:48.819Z,18.38
2023-05-24T15:53:44.843Z,17.77
2023-05-24T15:56:11.823Z,17.13
2023-05-24T15:58:38.340Z,17.58
2023-05-24T16:01:04.889Z,17.67
2023-05-24T16:03:31.580Z,16.27
2023-05-24T16:06:01.682Z,17.00
2023-05-24T16:10:55.594Z,17.42
2023-05-24T16:13:22.146Z,16.83
2023-05-24T16:15:51.602Z,16.40
2023-05-24T16:18:22.305Z,17.52
2023-05-24T16:20:50.070Z,17.50
2023-05-24T16:23:17.316Z,17.52
2023-05-24T16:25:46.090Z,18.85
2023-05-24T16:28:12.724Z,17.17
2023-05-24T16:30:39.698Z,17.33
2023-05-24T16:33:06.411Z,18.05
2023-05-24T16:35:33.742Z,17.20
2023-05-24T16:38:00.299Z,17.88
2023-05-24T16:40:28.379Z,17.60
2023-05-24T16:42:55.225Z,17.58
2023-05-24T16:45:21.750Z,17.60
2023-05-24T16:47:48.277Z,16.25
2023-05-24T16:50:15.182Z,16.27
2023-05-24T16:52:42.933Z,16.95
2023-05-24T16:55:10.721Z,17.20
2023-05-24T16:57:37.403Z,16.13
2023-05-24T17:00:04.976Z,14.85
2023-05-24T17:02:31.525Z,15.60
2023-05-24T17:04:58.046Z,16.60
2023-05-24T17:07:24.674Z,16.05
2023-05-24T17:09:51.767Z,15.30
2023-05-24T17:12:18.574Z,17.27
2023-05-24T17:14:45.120Z,17.25
2023-05-24T17:17:12.060Z,16.20
2023-05-24T17:19:38.605Z,16.48
2023-05-24T17:22:06.516Z,16.83
2023-05-24T17:24:32.983Z,16.20
2023-05-24T17:26:59.503Z,15.80
2023-05-24T17:29:26.722Z,16.20
2023-05-24T17:31:53.249Z,16.67
2023-05-24T17:34:19.745Z,15.77
2023-05-24T17:36:46.198Z,16.55
2023-05-24T17:39:12.798Z,16.35
2023-05-24T17:41:39.308Z,14.90
2023-05-24T17:44:06.098Z,14.52
2023-05-24T17:46:35.748Z,15.00
2023-05-24T17:49:02.900Z,14.88
2023-05-24T17:51:29.326Z,15.85
2023-05-24T17:53:56.106Z,15.75
2023-05-24T17:56:23.216Z,16.88
2023-05-24T17:58:50.547Z,15.30
2023-05-24T18:01:17.440Z,15.98
2023-05-24T18:03:44.027Z,16.52
2023-05-24T18:06:11.003Z,16.02
2023-05-24T18:08:43.022Z,17.73
2023-05-24T18:11:11.592Z,16.95
2023-05-24T18:13:45.073Z,16.55
2023-05-24T18:16:12.336Z,16.15
2023-05-24T18:18:39.139Z,16.83
2023-05-24T18:21:06.423Z,15.18
2023-05-24T18:23:37.188Z,16.88
2023-05-24T18:26:06.842Z,17.23
2023-05-24T18:28:34.529Z,16.25
2023-05-24T18:31:00.955Z,14.88
2023-05-24T18:33:27.460Z,14.82
2023-05-24T18:35:54.025Z,15.40
2023-05-24T18:38:20.569Z,15.85
2023-05-24T18:40:47.018Z,16.02
2023-05-24T18:43:13.726Z,15.95
2023-05-24T18:45:40.416Z,17.02
2023-05-24T18:48:07.938Z,16.58
2023-05-24T18:50:34.823Z,15.80
2023-05-24T18:53:01.376Z,16.30
2023-05-24T18:55:28.300Z,17.10
2023-05-24T18:57:54.913Z,16.67
2023-05-24T19:00:24.527Z,16.08
2023-05-24T19:02:51.522Z,15.90
2023-05-24T19:05:19.565Z,17.25
2023-05-24T19:07:46.050Z,16.77
2023-05-24T19:10:13.791Z,17.38
2023-05-24T19:12:40.347Z,17.27
2023-05-24T19:15:07.479Z,18.08
2023-05-24T19:17:33.955Z,18.27
2023-05-24T19:20:01.974Z,18.55
2023-05-24T19:22:31.080Z,19.23
2023-05-24T19:24:57.860Z,18.42
2023-05-24T19:27:24.613Z,18.40
2023-05-24T19:29:51.203Z,18.27
2023-05-24T19:32:18.368Z,17.85
2023-05-24T19:34:45.106Z,17.52
2023-05-24T19:37:11.679Z,18.77
2023-05-24T19:39:38.164Z,17.38
2023-05-24T19:42:04.921Z,15.35
2023-05-24T19:44:31.480Z,18.13
2023-05-24T19:46:58.123Z,17.20
2023-05-24T19:49:24.662Z,16.73
2023-05-24T19:51:51.625Z,17.38
2023-05-24T19:54:18.333Z,18.17
2023-05-24T19:56:46.144Z,16.98
2023-05-24T19:59:12.616Z,16.88
2023-05-24T20:01:39.116Z,16.27
2023-05-24T20:04:05.762Z,16.83
2023-05-24T20:06:33.085Z,17.00
2023-05-24T20:09:00.294Z,17.13
2023-05-24T20:11:28.108Z,20.63
2023-05-24T20:13:55.835Z,16.98
2023-05-24T20:16:23.123Z,16.50
2023-05-24T20:18:49.828Z,16.98
2023-05-24T20:21:18.289Z,16.95
2023-05-24T20:23:44.925Z,16.85
2023-05-24T20:26:11.529Z,17.08
2023-05-24T20:28:38.016Z,17.55
2023-05-24T20:31:04.559Z,16.98
2023-05-24T20:33:31.026Z,16.52
2023-05-24T20:35:58.259Z,16.85
2023-05-24T20:38:24.894Z,15.93
2023-05-24T20:40:51.458Z,15.73
2023-05-24T20:43:17.998Z,17.83
2023-05-24T20:45:44.787Z,16.38
2023-05-24T20:48:11.648Z,17.52
2023-05-24T20:50:38.159Z,16.70
2023-05-24T20:53:04.708Z,16.58
2023-05-24T20:55:31.607Z,16.30
2023-05-24T20:57:58.181Z,17.45
2023-05-24T21:00:24.687Z,15.23
2023-05-24T21:02:51.382Z,15.57
2023-05-24T21:05:18.006Z,15.98
2023-05-24T21:07:44.489Z,15.23
2023-05-24T21:10:21.445Z,16.48
2023-05-24T21:12:48.362Z,16.17
2023-05-24T21:15:15.006Z,16.20
2023-05-24T21:17:41.596Z,15.88
2023-05-24T21:20:08.487Z,15.85
2023-05-24T21:22:34.962Z,15.63
2023-05-24T21:25:01.450Z,15.57
2023-05-24T21:27:28.125Z,15.45
2023-05-24T21:29:54.611Z,14.73
2023-05-24T21:32:21.149Z,15.70
2023-05-24T21:34:47.662Z,16.83
2023-05-24T21:37:14.206Z,15.82
2023-05-24T21:39:43.586Z,16.52
2023-05-24T21:42:10.056Z,15.73
2023-05-24T21:44:36.816Z,17.80
2023-05-24T21:47:03.411Z,14.95
2023-05-24T21:49:29.869Z,15.52
2023-05-24T21:51:56.384Z,15.90
2023-05-24T21:54:22.848Z,17.08
2023-05-24T21:56:49.427Z,15.40
2023-05-24T21:59:15.919Z,15.82
2023-05-24T22:01:42.553Z,16.48
2023-05-24T22:04:09.606Z,17.67
2023-05-24T22:06:36.432Z,15.35
2023-05-24T22:09:03.119Z,16.05
2023-05-24T22:11:29.610Z,15.88
2023-05-24T22:13:56.602Z,16.08
2023-05-24T22:16:24.071Z,16.30
2023-05-24T22:18:55.703Z,15.35
2023-05-24T22:21:22.696Z,15.18
2023-05-24T22:23:50.687Z,15.90
2023-05-24T22:26:17.270Z,15.88
2023-05-24T22:28:55.520Z,15.10
2023-05-24T22:31:23.832Z,16.33
2023-05-24T22:33:50.517Z,16.40
2023-05-24T22:36:17.000Z,15.70
2023-05-24T22:38:44.102Z,14.23
2023-05-24T22:41:10.943Z,14.80
2023-05-24T22:43:37.403Z,15.43
2023-05-24T22:46:03.962Z,16.33
2023-05-24T22:48:33.758Z,15.82
2023-05-24T22:51:00.741Z,15.90
2023-05-24T22:53:27.210Z,15.55
2023-05-24T22:55:53.675Z,15.43
2023-05-24T22:58:23.286Z,15.98
2023-05-24T23:00:50.804Z,16.23
2023-05-24T23:03:18.118Z,15.35
2023-05-24T23:05:45.626Z,15.43
2023-05-24T23:08:15.386Z,16.88
2023-05-24T23:10:45.579Z,16.05
2023-05-24T23:15:39.953Z,15.63
2023-05-24T23:18:07.220Z,15.80
2023-05-24T23:20:40.395Z,16.00
2023-05-24T23:23:07.773Z,16.92
2023-05-24T23:25:35.230Z,16.38
2023-05-24T23:28:01.768Z,17.00
2023-05-24T23:30:28.684Z,16.60
2023-05-24T23:32:55.302Z,17.75
2023-05-24T23:35:22.168Z,18.00
2023-05-24T23:37:48.772Z,18.15
2023-05-24T23:40:15.406Z,17.20
2023-05-24T23:42:41.933Z,17.75
2023-05-24T23:45:08.674Z,18.65
2023-05-24T23:47:35.164Z,18.63
2023-05-24T23:50:01.741Z,18.73
2023-05-24T23:52:28.286Z,18.65
2023-05-24T23:54:54.725Z,18.55
2023-05-24T23:57:21.684Z,18.80
2023-05-24T23:59:48.163Z,19.00
